createdAt,value
2022-10-30T00:00:53.681Z,101733.75
2022-10-30T00:03:20.480Z,101728.63
2022-10-30T00:05:49.661Z,101727.19
2022-10-30T00:08:19.131Z,101729.34
2022-10-30T00:10:46.635Z,101727.25
2022-10-30T00:13:14.055Z,101732.09
2022-10-30T00:15:46.225Z,101730.53
2022-10-30T00:18:12.751Z,101721.88
2022-10-30T00:20:39.244Z,101725.56
2022-10-30T00:23:05.940Z,101723.00
2022-10-30T00:25:34.351Z,101719.59
2022-10-30T00:28:00.845Z,101715.16
2022-10-30T00:30:27.337Z,101716.34
2022-10-30T00:32:53.867Z,101712.78
2022-10-30T00:35:21.744Z,101719.88
2022-10-30T00:37:48.215Z,101715.63
2022-10-30T00:40:16.357Z,101714.91
2022-10-30T00:42:43.670Z,101710.47
2022-10-30T00:45:14.876Z,101711.88
2022-10-30T00:47:51.546Z,101713.88
2022-10-30T00:53:08.739Z,101698.69
2022-10-30T00:55:39.748Z,101703.66
2022-10-30T00:58:10.473Z,101708.81
2022-10-30T01:00:40.635Z,101697.00
2022-10-30T01:03:07.407Z,101697.59
2022-10-30T01:05:35.401Z,101693.16
2022-10-30T01:08:02.348Z,101702.28
2022-10-30T01:10:29.138Z,101699.03
2022-10-30T01:12:58.544Z,101688.50
2022-10-30T01:15:31.563Z,101694.59
2022-10-30T01:18:21.058Z,101687.63
2022-10-30T01:21:28.055Z,101688.91
2022-10-30T01:24:25.510Z,101679.28
2022-10-30T01:27:42.044Z,101678.69
2022-10-30T01:30:08.504Z,101677.81
2022-10-30T01:32:50.010Z,101676.28
2022-10-30T01:36:07.423Z,101672.41
2022-10-30T01:39:04.260Z,101671.59
2022-10-30T01:41:30.838Z,101661.22
2022-10-30T01:44:01.941Z,101658.50
2022-10-30T01:46:44.907Z,101657.78
2022-10-30T01:49:35.432Z,101659.94
2022-10-30T01:52:23.825Z,101657.50
2022-10-30T01:55:05.462Z,101644.56
2022-10-30T01:57:42.380Z,101651.41
2022-10-30T02:00:16.042Z,101651.41
2022-10-30T02:02:43.586Z,101644.56
2022-10-30T02:05:14.914Z,101640.31
2022-10-30T02:07:41.409Z,101643.16
2022-10-30T02:10:08.361Z,101648.00
2022-10-30T02:12:34.931Z,101650.00
2022-10-30T02:15:01.912Z,101650.97
2022-10-30T02:17:28.477Z,101650.56
2022-10-30T02:19:55.393Z,101650.00
2022-10-30T02:22:22.246Z,101648.44
2022-10-30T02:24:48.942Z,101641.47
2022-10-30T02:27:15.535Z,101656.56
2022-10-30T02:29:42.070Z,101649.41
2022-10-30T02:32:08.589Z,101647.03
2022-10-30T02:34:35.156Z,101649.13
2022-10-30T02:37:01.826Z,101653.69
2022-10-30T02:39:28.375Z,101642.31
2022-10-30T02:41:54.987Z,101652.25
2022-10-30T02:44:21.574Z,101645.28
2022-10-30T02:46:48.059Z,101640.03
2022-10-30T02:49:14.584Z,101636.47
2022-10-30T02:51:41.130Z,101635.47
2022-10-30T02:54:07.716Z,101637.19
2022-10-30T02:56:34.268Z,101642.31
2022-10-30T02:59:01.001Z,101645.00
2022-10-30T03:01:27.617Z,101645.28
2022-10-30T03:03:54.271Z,101644.56
2022-10-30T03:06:20.934Z,101645.13
2022-10-30T03:08:47.526Z,101653.09
2022-10-30T03:11:19.639Z,101641.47
2022-10-30T03:13:47.573Z,101645.13
2022-10-30T03:16:22.974Z,101638.16
2022-10-30T03:18:50.967Z,101631.19
2022-10-30T03:21:20.268Z,101639.44
2022-10-30T03:23:47.005Z,101636.88
2022-10-30T03:26:13.737Z,101635.75
2022-10-30T03:28:40.247Z,101639.44
2022-10-30T03:31:09.806Z,101645.69
2022-10-30T03:33:37.697Z,101644.53
2022-10-30T03:36:06.650Z,101642.13
2022-10-30T03:38:33.462Z,101641.00
2022-10-30T03:41:00.327Z,101646.53
2022-10-30T03:43:27.178Z,101647.53
2022-10-30T03:45:55.563Z,101646.69
2022-10-30T03:48:24.925Z,101636.59
2022-10-30T03:51:00.592Z,101647.38
2022-10-30T03:53:28.622Z,101658.44
2022-10-30T03:56:01.299Z,101652.22
2022-10-30T03:58:29.143Z,101655.88
2022-10-30T04:01:01.665Z,101655.75
2022-10-30T04:03:28.324Z,101654.19
2022-10-30T04:05:54.922Z,101652.06
2022-10-30T04:08:22.018Z,101651.91
2022-10-30T04:10:48.658Z,101658.44
2022-10-30T04:13:17.120Z,101653.44
2022-10-30T04:15:43.747Z,101649.06
2022-10-30T04:18:13.742Z,101655.44
2022-10-30T04:20:40.695Z,101640.97
2022-10-30T04:23:09.146Z,101651.03
2022-10-30T04:25:36.084Z,101650.03
2022-10-30T04:28:03.292Z,101647.47
2022-10-30T04:30:34.078Z,101647.88
2022-10-30T04:33:02.934Z,101641.78
2022-10-30T04:35:32.323Z,101648.03
2022-10-30T04:38:03.787Z,101642.63
2022-10-30T04:40:33.495Z,101641.38
2022-10-30T04:43:01.003Z,101645.63
2022-10-30T04:45:27.782Z,101638.53
2022-10-30T04:48:01.248Z,101629.00
2022-10-30T04:50:28.070Z,101628.75
2022-10-30T04:53:11.887Z,101636.13
2022-10-30T04:55:38.591Z,101623.91
2022-10-30T04:58:05.141Z,101624.03
2022-10-30T05:00:32.354Z,101629.84
2022-10-30T05:03:01.018Z,101634.78
2022-10-30T05:05:29.067Z,101628.09
2022-10-30T05:07:56.063Z,101622.41
2022-10-30T05:10:23.461Z,101627.25
2022-10-30T05:12:52.680Z,101631.06
2022-10-30T05:15:19.343Z,101630.22
2022-10-30T05:17:45.899Z,101627.94
2022-10-30T05:20:14.876Z,101629.94
2022-10-30T05:22:45.210Z,101619.69
2022-10-30T05:25:11.773Z,101623.41
2022-10-30T05:27:38.241Z,101624.22
2022-10-30T05:30:05.154Z,101617.28
2022-10-30T05:32:31.655Z,101622.69
2022-10-30T05:34:58.203Z,101628.75
2022-10-30T05:37:25.053Z,101618.97
2022-10-30T05:39:51.715Z,101624.34
2022-10-30T05:42:18.212Z,101629.75
2022-10-30T05:45:00.292Z,101618.38
2022-10-30T05:47:27.733Z,101612.56
2022-10-30T05:49:54.260Z,101614.28
2022-10-30T05:52:20.794Z,101628.00
2022-10-30T05:54:47.449Z,101631.50
2022-10-30T05:57:14.007Z,101640.16
2022-10-30T05:59:40.569Z,101643.00
2022-10-30T06:02:07.152Z,101638.72
2022-10-30T06:04:33.821Z,101642.41
2022-10-30T06:07:00.333Z,101645.00
2022-10-30T06:09:26.881Z,101646.28
2022-10-30T06:11:53.997Z,101652.19
2022-10-30T06:14:20.520Z,101646.25
2022-10-30T06:16:47.686Z,101645.44
2022-10-30T06:19:17.549Z,101642.19
2022-10-30T06:21:45.947Z,101648.06
2022-10-30T06:24:12.723Z,101644.97
2022-10-30T06:26:39.542Z,101645.56
2022-10-30T06:29:06.104Z,101632.53
2022-10-30T06:31:32.767Z,101645.66
2022-10-30T06:33:59.481Z,101642.00
2022-10-30T06:36:26.124Z,101650.97
2022-10-30T06:38:52.824Z,101648.19
2022-10-30T06:41:19.423Z,101641.63
2022-10-30T06:43:46.013Z,101653.84
2022-10-30T06:46:12.620Z,101669.88
2022-10-30T06:48:39.199Z,101665.22
2022-10-30T06:51:06.136Z,101662.19
2022-10-30T06:53:32.710Z,101672.72
2022-10-30T06:56:01.762Z,101674.53
2022-10-30T06:58:29.825Z,101666.59
2022-10-30T07:00:59.266Z,101670.16
2022-10-30T07:03:25.803Z,101675.28
2022-10-30T07:05:52.773Z,101669.72
2022-10-30T07:08:19.361Z,101671.78
2022-10-30T07:10:45.882Z,101673.06
2022-10-30T07:13:12.527Z,101668.81
2022-10-30T07:15:39.352Z,101678.78
2022-10-30T07:18:06.489Z,101698.19
2022-10-30T07:20:34.454Z,101701.38
2022-10-30T07:23:01.700Z,101691.13
2022-10-30T07:25:28.592Z,101689.59
2022-10-30T07:27:57.087Z,101697.53
2022-10-30T07:33:02.811Z,101693.00
2022-10-30T07:35:30.922Z,101704.53
2022-10-30T07:38:05.564Z,101690.50
2022-10-30T07:40:33.113Z,101698.16
2022-10-30T07:43:01.918Z,101691.13
2022-10-30T07:45:29.270Z,101699.06
2022-10-30T07:47:56.725Z,101698.69
2022-10-30T07:50:24.557Z,101694.13
2022-10-30T07:52:51.121Z,101696.72
2022-10-30T07:55:18.063Z,101696.53
2022-10-30T07:57:44.646Z,101699.31
2022-10-30T08:00:13.907Z,101697.94
2022-10-30T08:02:40.936Z,101695.63
2022-10-30T08:05:08.290Z,101702.81
2022-10-30T08:07:37.757Z,101700.69
2022-10-30T08:10:06.145Z,101699.41
2022-10-30T08:12:32.854Z,101701.31
2022-10-30T08:14:59.421Z,101699.00
2022-10-30T08:17:26.017Z,101699.00
2022-10-30T08:19:52.715Z,101705.75
2022-10-30T08:22:19.272Z,101696.75
2022-10-30T08:24:45.912Z,101698.34
2022-10-30T08:27:12.436Z,101698.91
2022-10-30T08:29:39.093Z,101701.97
2022-10-30T08:32:05.829Z,101701.34
2022-10-30T08:34:34.583Z,101701.22
2022-10-30T08:37:01.295Z,101708.81
2022-10-30T08:39:27.857Z,101708.88
2022-10-30T08:41:56.796Z,101715.44
2022-10-30T08:44:23.340Z,101702.63
2022-10-30T08:46:49.848Z,101701.28
2022-10-30T08:49:16.427Z,101704.00
2022-10-30T08:51:43.058Z,101704.16
2022-10-30T08:54:10.997Z,101702.38
2022-10-30T08:56:37.566Z,101705.81
2022-10-30T08:59:04.088Z,101696.59
2022-10-30T09:01:30.676Z,101704.16
2022-10-30T09:03:57.376Z,101703.00
2022-10-30T09:06:23.993Z,101703.00
2022-10-30T09:08:50.583Z,101700.31
2022-10-30T09:11:17.524Z,101702.03
2022-10-30T09:13:44.175Z,101697.50
2022-10-30T09:16:10.800Z,101701.56
2022-10-30T09:18:37.435Z,101688.22
2022-10-30T09:21:05.159Z,101692.81
2022-10-30T09:23:32.193Z,101698.28
2022-10-30T09:25:58.840Z,101699.72
2022-10-30T09:28:25.364Z,101698.34
2022-10-30T09:30:56.375Z,101699.41
2022-10-30T09:33:23.419Z,101701.69
2022-10-30T09:35:50.189Z,101703.25
2022-10-30T09:38:16.789Z,101693.59
2022-10-30T09:40:46.362Z,101700.94
2022-10-30T09:43:50.739Z,101703.09
2022-10-30T09:46:49.725Z,101709.66
2022-10-30T09:49:38.283Z,101708.84
2022-10-30T09:52:23.427Z,101704.66
2022-10-30T09:55:05.141Z,101702.84
2022-10-30T09:57:46.587Z,101713.00
2022-10-30T10:00:19.577Z,101709.06
2022-10-30T10:03:13.904Z,101711.59
2022-10-30T10:05:51.235Z,101703.06
2022-10-30T10:08:47.739Z,101695.44
2022-10-30T10:11:23.118Z,101694.69
2022-10-30T10:13:58.980Z,101696.84
2022-10-30T10:16:33.581Z,101683.09
2022-10-30T10:19:15.743Z,101692.47
2022-10-30T10:21:47.661Z,101689.84
2022-10-30T10:24:22.499Z,101690.69
2022-10-30T10:27:14.835Z,101681.09
2022-10-30T10:30:01.699Z,101688.91
2022-10-30T10:32:28.541Z,101683.53
2022-10-30T10:35:32.772Z,101686.63
2022-10-30T10:38:12.940Z,101683.81
2022-10-30T10:40:52.709Z,101678.56
2022-10-30T10:43:40.472Z,101676.81
2022-10-30T10:46:06.977Z,101676.06
2022-10-30T10:48:39.960Z,101677.81
2022-10-30T10:51:32.857Z,101673.91
2022-10-30T10:54:10.715Z,101670.91
2022-10-30T10:56:43.178Z,101673.50
2022-10-30T10:59:23.157Z,101666.72
2022-10-30T11:02:08.673Z,101657.41
2022-10-30T11:04:43.469Z,101660.97
2022-10-30T11:07:23.581Z,101656.97
2022-10-30T11:09:55.463Z,101652.31
2022-10-30T11:12:33.845Z,101661.19
2022-10-30T11:15:16.073Z,101647.97
2022-10-30T11:17:51.650Z,101651.66
2022-10-30T11:20:25.514Z,101650.66
2022-10-30T11:22:52.102Z,101643.00
2022-10-30T11:25:28.603Z,101641.84
2022-10-30T11:27:59.670Z,101642.41
2022-10-30T11:30:28.935Z,101639.31
2022-10-30T11:32:57.234Z,101637.03
2022-10-30T11:35:25.112Z,101635.00
2022-10-30T11:38:13.135Z,101632.25
2022-10-30T11:40:41.397Z,101628.97
2022-10-30T11:43:12.972Z,101623.53
2022-10-30T11:45:43.581Z,101631.03
2022-10-30T11:48:40.479Z,101628.03
2022-10-30T11:51:07.101Z,101630.81
2022-10-30T11:53:42.825Z,101634.63
2022-10-30T11:56:19.239Z,101623.16
2022-10-30T11:58:51.012Z,101620.16
2022-10-30T12:01:25.756Z,101618.91
2022-10-30T12:03:54.222Z,101614.97
2022-10-30T12:06:24.792Z,101619.47
2022-10-30T12:09:10.085Z,101609.47
2022-10-30T12:11:37.923Z,101609.19
2022-10-30T12:14:05.129Z,101611.59
2022-10-30T12:16:32.957Z,101603.09
2022-10-30T12:19:15.173Z,101610.88
2022-10-30T12:21:47.029Z,101602.94
2022-10-30T12:24:38.980Z,101595.34
2022-10-30T12:27:18.172Z,101587.13
2022-10-30T12:30:17.172Z,101577.72
2022-10-30T12:32:57.471Z,101588.06
2022-10-30T12:35:51.176Z,101581.22
2022-10-30T12:38:38.005Z,101577.06
2022-10-30T12:41:34.358Z,101574.50
2022-10-30T12:44:14.313Z,101570.69
2022-10-30T12:47:06.523Z,101559.56
2022-10-30T12:49:51.901Z,101562.22
2022-10-30T12:52:21.458Z,101557.47
2022-10-30T12:55:16.268Z,101552.22
2022-10-30T12:58:21.347Z,101552.31
2022-10-30T13:00:58.077Z,101548.75
2022-10-30T13:03:46.619Z,101546.53
2022-10-30T13:06:21.010Z,101536.94
2022-10-30T13:09:04.267Z,101548.63
2022-10-30T13:11:39.809Z,101543.44
2022-10-30T13:14:14.576Z,101541.09
2022-10-30T13:16:41.286Z,101537.22
2022-10-30T13:19:11.482Z,101541.47
2022-10-30T13:21:48.963Z,101532.19
2022-10-30T13:24:48.867Z,101526.06
2022-10-30T13:27:42.636Z,101524.06
2022-10-30T13:30:22.498Z,101531.78
2022-10-30T13:32:49.028Z,101532.63
2022-10-30T13:35:31.886Z,101526.78
2022-10-30T13:38:03.776Z,101525.28
2022-10-30T13:40:44.594Z,101516.72
2022-10-30T13:43:42.904Z,101518.25
2022-10-30T13:46:40.865Z,101524.38
2022-10-30T13:49:25.629Z,101518.31
2022-10-30T13:52:04.717Z,101523.94
2022-10-30T13:54:46.784Z,101522.59
2022-10-30T13:57:22.153Z,101515.50
2022-10-30T14:00:06.649Z,101508.19
2022-10-30T14:02:39.223Z,101513.78
2022-10-30T14:05:29.204Z,101507.81
2022-10-30T14:08:21.772Z,101511.03
2022-10-30T14:11:00.406Z,101507.97
2022-10-30T14:13:27.562Z,101508.44
2022-10-30T14:16:01.175Z,101505.66
2022-10-30T14:18:29.041Z,101501.66
2022-10-30T14:21:19.849Z,101502.25
2022-10-30T14:23:46.615Z,101503.41
2022-10-30T14:26:14.371Z,101499.56
2022-10-30T14:28:47.192Z,101492.38
2022-10-30T14:31:16.760Z,101495.13
2022-10-30T14:33:54.722Z,101496.25
2022-10-30T14:36:41.468Z,101495.00
2022-10-30T14:39:11.043Z,101490.13
2022-10-30T14:41:52.633Z,101489.34
2022-10-30T14:44:50.567Z,101495.59
2022-10-30T14:47:39.793Z,101494.00
2022-10-30T14:50:27.710Z,101491.72
2022-10-30T14:53:19.043Z,101494.28
2022-10-30T14:55:57.568Z,101488.88
2022-10-30T14:58:26.871Z,101489.28
2022-10-30T15:01:25.721Z,101496.94
2022-10-30T15:04:01.095Z,101491.88
2022-10-30T15:06:56.253Z,101490.66
2022-10-30T15:09:53.690Z,101486.03
2022-10-30T15:12:58.202Z,101481.38
2022-10-30T15:15:28.053Z,101481.03
2022-10-30T15:17:59.262Z,101479.63
2022-10-30T15:20:31.562Z,101473.75
2022-10-30T15:23:22.802Z,101469.13
2022-10-30T15:26:08.944Z,101463.44
2022-10-30T15:28:38.143Z,101460.75
2022-10-30T15:31:24.597Z,101475.75
2022-10-30T15:33:54.205Z,101477.50
2022-10-30T15:36:25.322Z,101470.97
2022-10-30T15:39:11.752Z,101478.81
2022-10-30T15:41:57.246Z,101473.78
2022-10-30T15:44:33.306Z,101478.84
2022-10-30T15:47:02.211Z,101479.69
2022-10-30T15:49:30.854Z,101488.97
2022-10-30T15:51:58.852Z,101487.75
2022-10-30T15:54:27.237Z,101486.03
2022-10-30T15:57:31.200Z,101494.06
2022-10-30T15:59:51.721Z,101486.25
2022-10-30T16:02:23.935Z,101492.09
2022-10-30T16:04:50.715Z,101492.69
2022-10-30T16:07:29.045Z,101492.88
2022-10-30T16:09:55.443Z,101493.66
2022-10-30T16:12:31.422Z,101491.91
2022-10-30T16:15:02.300Z,101491.81
2022-10-30T16:17:28.908Z,101495.53
2022-10-30T16:20:01.130Z,101492.09
2022-10-30T16:22:35.722Z,101485.44
2022-10-30T16:25:10.011Z,101496.09
2022-10-30T16:27:43.965Z,101492.16
2022-10-30T16:30:14.056Z,101495.59
2022-10-30T16:32:41.484Z,101492.91
2022-10-30T16:35:11.029Z,101491.59
2022-10-30T16:37:41.206Z,101501.41
2022-10-30T16:40:15.843Z,101508.25
2022-10-30T16:42:50.283Z,101507.72
2022-10-30T16:45:19.842Z,101504.56
2022-10-30T16:47:58.351Z,101513.63
2022-10-30T16:50:37.101Z,101508.00
2022-10-30T16:53:11.306Z,101507.63
2022-10-30T16:55:40.665Z,101512.91
2022-10-30T16:58:07.326Z,101512.66
2022-10-30T17:00:36.535Z,101513.09
2022-10-30T17:03:11.965Z,101521.03
2022-10-30T17:05:40.282Z,101534.00
2022-10-30T17:08:33.256Z,101527.41
2022-10-30T17:11:02.580Z,101526.94
2022-10-30T17:13:34.845Z,101534.94
2022-10-30T17:16:27.518Z,101539.94
2022-10-30T17:18:57.166Z,101546.59
2022-10-30T17:21:46.009Z,101543.47
2022-10-30T17:24:22.089Z,101549.66
2022-10-30T17:26:56.905Z,101551.41
2022-10-30T17:29:38.523Z,101559.84
2022-10-30T17:32:15.993Z,101554.91
2022-10-30T17:34:42.508Z,101560.25
2022-10-30T17:37:09.045Z,101551.41
2022-10-30T17:39:35.561Z,101551.59
2022-10-30T17:42:02.620Z,101560.63
2022-10-30T17:44:33.156Z,101562.50
2022-10-30T17:47:01.141Z,101555.22
2022-10-30T17:49:31.784Z,101563.06
2022-10-30T17:51:59.074Z,101567.03
2022-10-30T17:54:25.666Z,101561.22
2022-10-30T17:56:52.749Z,101572.31
2022-10-30T17:59:19.644Z,101570.50
2022-10-30T18:01:47.008Z,101567.97
2022-10-30T18:04:20.788Z,101576.31
2022-10-30T18:06:48.691Z,101571.59
2022-10-30T18:09:15.625Z,101571.28
2022-10-30T18:11:42.375Z,101579.78
2022-10-30T18:14:12.362Z,101580.84
2022-10-30T18:16:39.032Z,101576.63
2022-10-30T18:19:10.531Z,101579.66
2022-10-30T18:21:37.507Z,101564.56
2022-10-30T18:24:10.436Z,101580.88
2022-10-30T18:26:40.530Z,101581.25
2022-10-30T18:29:08.218Z,101577.69
2022-10-30T18:31:34.951Z,101583.50
2022-10-30T18:34:01.507Z,101574.16
2022-10-30T18:36:28.061Z,101574.16
2022-10-30T18:38:56.047Z,101576.03
2022-10-30T18:41:24.836Z,101570.06
2022-10-30T18:43:52.497Z,101581.31
2022-10-30T18:46:18.997Z,101572.78
2022-10-30T18:48:45.685Z,101579.44
2022-10-30T18:51:38.773Z,101575.53
2022-10-30T18:54:13.789Z,101578.25
2022-10-30T18:56:40.358Z,101569.78
2022-10-30T18:59:06.920Z,101575.22
2022-10-30T19:01:33.792Z,101573.00
2022-10-30T19:04:04.435Z,101575.06
2022-10-30T19:06:34.198Z,101576.22
2022-10-30T19:09:01.154Z,101574.56
2022-10-30T19:11:30.807Z,101581.00
2022-10-30T19:13:57.876Z,101574.88
2022-10-30T19:16:25.588Z,101577.41
2022-10-30T19:18:52.698Z,101584.22
2022-10-30T19:21:25.705Z,101572.84
2022-10-30T19:23:53.900Z,101582.16
2022-10-30T19:26:20.561Z,101583.53
2022-10-30T19:28:47.132Z,101591.69
2022-10-30T19:31:15.766Z,101586.41
2022-10-30T19:33:42.787Z,101593.38
2022-10-30T19:36:36.270Z,101585.56
2022-10-30T19:39:14.124Z,101582.34
2022-10-30T19:41:41.614Z,101596.41
2022-10-30T19:44:08.813Z,101584.69
2022-10-30T19:46:36.680Z,101585.03
2022-10-30T19:49:16.693Z,101578.06
2022-10-30T19:51:43.495Z,101577.81
2022-10-30T19:54:10.013Z,101583.59
2022-10-30T19:56:36.607Z,101575.47
2022-10-30T19:59:03.618Z,101576.63
2022-10-30T20:01:30.257Z,101576.81
2022-10-30T20:03:56.974Z,101576.31
2022-10-30T20:06:23.683Z,101582.53
2022-10-30T20:08:50.241Z,101579.66
2022-10-30T20:11:16.913Z,101578.44
2022-10-30T20:13:43.637Z,101581.47
2022-10-30T20:16:10.815Z,101589.44
2022-10-30T20:18:37.769Z,101582.66
2022-10-30T20:21:09.927Z,101593.81
2022-10-30T20:23:36.962Z,101586.19
2022-10-30T20:26:12.068Z,101592.28
2022-10-30T20:28:41.660Z,101582.22
2022-10-30T20:31:10.968Z,101585.94
2022-10-30T20:33:37.870Z,101590.19
2022-10-30T20:36:04.809Z,101595.59
2022-10-30T20:38:33.473Z,101593.88
2022-10-30T20:41:01.663Z,101587.41
2022-10-30T20:43:38.805Z,101589.78
2022-10-30T20:46:09.277Z,101598.28
2022-10-30T20:48:36.249Z,101590.44
2022-10-30T20:51:03.314Z,101582.94
2022-10-30T20:53:30.305Z,101595.50
2022-10-30T20:55:57.071Z,101589.22
2022-10-30T20:58:24.022Z,101606.38
2022-10-30T21:00:50.744Z,101595.13
2022-10-30T21:03:17.584Z,101587.34
2022-10-30T21:05:46.269Z,101603.97
2022-10-30T21:08:15.953Z,101590.41
2022-10-30T21:10:42.881Z,101602.28
2022-10-30T21:13:11.033Z,101603.25
2022-10-30T21:15:40.165Z,101592.41
2022-10-30T21:18:07.190Z,101603.44
2022-10-30T21:20:33.904Z,101603.91
2022-10-30T21:23:00.774Z,101601.19
2022-10-30T21:25:27.588Z,101604.25
2022-10-30T21:27:56.749Z,101590.00
2022-10-30T21:30:23.726Z,101589.78
2022-10-30T21:32:50.706Z,101600.44
2022-10-30T21:35:17.772Z,101600.44
2022-10-30T21:37:44.818Z,101588.34
2022-10-30T21:40:12.083Z,101596.06
2022-10-30T21:42:38.841Z,101584.34
2022-10-30T21:45:06.298Z,101582.72
2022-10-30T21:47:32.813Z,101600.66
2022-10-30T21:49:59.363Z,101582.81
2022-10-30T21:52:26.822Z,101592.34
2022-10-30T21:54:53.330Z,101598.59
2022-10-30T21:57:19.856Z,101598.28
2022-10-30T21:59:46.494Z,101594.19
2022-10-30T22:02:16.162Z,101599.63
2022-10-30T22:04:42.734Z,101595.19
2022-10-30T22:07:09.260Z,101598.44
2022-10-30T22:09:35.981Z,101586.75
2022-10-30T22:12:02.553Z,101603.00
2022-10-30T22:14:29.392Z,101586.22
2022-10-30T22:16:56.293Z,101590.44
2022-10-30T22:19:22.807Z,101595.56
2022-10-30T22:21:49.389Z,101586.06
2022-10-30T22:24:17.272Z,101593.03
2022-10-30T22:26:43.839Z,101596.22
2022-10-30T22:29:11.466Z,101593.09
2022-10-30T22:31:37.992Z,101587.69
2022-10-30T22:34:04.977Z,101581.22
2022-10-30T22:36:33.346Z,101580.13
2022-10-30T22:39:07.434Z,101589.97
2022-10-30T22:41:37.577Z,101575.97
2022-10-30T22:44:11.547Z,101591.06
2022-10-30T22:46:38.635Z,101590.81
2022-10-30T22:49:05.637Z,101595.53
2022-10-30T22:51:34.713Z,101590.13
2022-10-30T22:54:03.183Z,101586.88
2022-10-30T22:56:32.788Z,101588.75
2022-10-30T22:59:10.151Z,101581.22
2022-10-30T23:01:38.353Z,101583.25
2022-10-30T23:04:06.379Z,101588.81
2022-10-30T23:06:34.420Z,101598.28
2022-10-30T23:09:04.560Z,101588.50
2022-10-30T23:11:31.506Z,101584.56
2022-10-30T23:13:58.375Z,101583.88
2022-10-30T23:16:26.294Z,101583.34
2022-10-30T23:18:55.442Z,101590.75
2022-10-30T23:21:25.153Z,101583.94
2022-10-30T23:23:52.382Z,101579.53
2022-10-30T23:26:30.317Z,101578.38
2022-10-30T23:28:58.355Z,101568.69
2022-10-30T23:31:37.314Z,101573.13
2022-10-30T23:34:09.643Z,101574.09
2022-10-30T23:36:37.328Z,101575.56
2022-10-30T23:39:09.378Z,101566.22
2022-10-30T23:41:36.025Z,101564.22
2022-10-30T23:44:10.467Z,101572.34
2022-10-30T23:46:37.351Z,101557.28
2022-10-30T23:49:05.052Z,101555.72
2022-10-30T23:51:31.819Z,101567.78
2022-10-30T23:53:58.529Z,101570.66
2022-10-30T23:56:25.341Z,101574.22
2022-10-30T23:58:53.007Z,101571.50
